Time;durP1;ratioP1;P1;durP2;ratioP2;P2;SDS_P1;SDS_P2;PMS_P1;PMS_P2;Temp;Humidity;BMP_temperature;BMP_pressure;BME280_temperature;BME280_humidity;BME280_pressure;Samples;Min_cycle;Max_cycle;Signal;HPM_P1;HPM_P2
2022/01/02 00:01:35;;;;;;;23.30;15.35;;;20.70;94.70;;;;;;4177182;28;20057;-63
2022/01/02 00:03:41;;;;;;;29.63;16.90;;;20.60;94.80;;;;;;4172233;28;20111;-63
2022/01/02 00:05:45;;;;;;;23.75;16.15;;;20.60;94.90;;;;;;4176124;28;20138;-64
2022/01/02 00:08:05;;;;;;;26.67;15.95;;;20.60;94.90;;;;;;4174226;28;20403;-63
2022/01/02 00:10:09;;;;;;;23.77;15.60;;;20.60;94.90;;;;;;4172303;28;20064;-64
2022/01/02 00:12:16;;;;;;;31.05;15.13;;;20.60;94.90;;;;;;4170349;28;20044;-63
2022/01/02 00:14:22;;;;;;;29.63;15.20;;;20.60;95.00;;;;;;4173974;28;20041;-63
2022/01/02 00:16:26;;;;;;;22.65;14.32;;;20.60;94.90;;;;;;4169737;28;20418;-63
2022/01/02 00:18:34;;;;;;;33.92;16.45;;;20.60;94.90;;;;;;4169994;28;20107;-63
2022/01/02 00:20:46;;;;;;;29.73;15.90;;;20.60;94.90;;;;;;4169254;28;20426;-64
2022/01/02 00:22:52;;;;;;;29.80;15.35;;;20.70;94.80;;;;;;4167127;28;20512;-63
2022/01/02 00:24:58;;;;;;;30.25;15.35;;;20.70;94.70;;;;;;4161367;28;20045;-63
2022/01/02 00:27:03;;;;;;;28.63;15.13;;;20.60;94.90;;;;;;4166076;28;20084;-63
2022/01/02 00:29:07;;;;;;;40.40;17.05;;;20.70;94.70;;;;;;4168228;28;20523;-64
2022/01/02 00:31:13;;;;;;;39.30;16.98;;;20.70;94.70;;;;;;4174820;28;20051;-64
2022/01/02 00:33:19;;;;;;;36.35;16.65;;;20.70;94.60;;;;;;4169048;28;20433;-63
2022/01/02 00:35:24;;;;;;;51.60;28.50;;;20.80;94.60;;;;;;4167187;28;20064;-63
2022/01/02 00:37:28;;;;;;;76.18;46.10;;;20.80;94.70;;;;;;4167534;28;20053;-64
2022/01/02 00:39:32;;;;;;;78.70;53.13;;;20.90;94.60;;;;;;4170315;28;20053;-64
2022/01/02 00:41:53;;;;;;;64.20;39.85;;;20.90;94.60;;;;;;4171473;28;20399;-64
2022/01/02 00:44:07;;;;;;;39.28;26.88;;;20.80;94.80;;;;;;4161024;28;20052;-63
2022/01/02 00:46:11;;;;;;;50.92;30.13;;;21.00;94.60;;;;;;4167358;28;20050;-64
2022/01/02 00:48:29;;;;;;;42.85;23.08;;;21.00;94.70;;;;;;4171441;28;20049;-64
2022/01/02 00:50:49;;;;;;;39.10;17.38;;;21.00;94.30;;;;;;4163169;28;20057;-64
2022/01/02 00:52:53;;;;;;;32.42;14.60;;;20.90;94.40;;;;;;4188950;28;20041;-62
2022/01/02 00:54:58;;;;;;;26.02;12.90;;;20.90;94.50;;;;;;4177875;28;20459;-62
2022/01/02 00:57:08;;;;;;;21.38;10.82;;;21.00;94.30;;;;;;4166156;28;20542;-63
2022/01/02 00:59:22;;;;;;;17.95;9.70;;;21.00;93.80;;;;;;4170023;28;20052;-62
2022/01/02 01:01:33;;;;;;;14.70;9.07;;;21.00;93.90;;;;;;4163930;28;20135;-62
2022/01/02 01:03:39;;;;;;;16.13;8.75;;;21.10;93.70;;;;;;4189421;28;20078;-63
2022/01/02 01:05:45;;;;;;;13.02;8.52;;;21.30;93.70;;;;;;4172706;28;20112;-63
2022/01/02 01:07:52;;;;;;;11.88;8.10;;;21.30;93.50;;;;;;4169899;28;20052;-64
2022/01/02 01:09:57;;;;;;;12.52;7.95;;;21.50;93.30;;;;;;4168985;28;20391;-62
2022/01/02 01:12:10;;;;;;;10.57;6.80;;;21.50;92.90;;;;;;4167342;28;20415;-63
2022/01/02 01:14:15;;;;;;;14.23;7.45;;;21.70;92.60;;;;;;4171545;28;20132;-63
2022/01/02 01:16:20;;;;;;;13.45;6.70;;;21.80;92.30;;;;;;4172509;28;20042;-62
2022/01/02 01:18:25;;;;;;;69.40;10.23;;;21.80;92.20;;;;;;4172798;28;20167;-62
2022/01/02 01:20:31;;;;;;;16.63;6.68;;;21.90;92.30;;;;;;4169898;28;20045;-62
2022/01/02 01:22:36;;;;;;;12.52;7.00;;;22.00;91.90;;;;;;4169337;28;20573;-61
2022/01/02 01:24:41;;;;;;;12.52;6.43;;;22.10;92.10;;;;;;4172803;28;20040;-61
2022/01/02 01:26:47;;;;;;;12.25;6.60;;;22.20;91.60;;;;;;4165342;28;20918;-61
2022/01/02 01:28:52;;;;;;;8.98;6.60;;;22.00;91.30;;;;;;4182324;28;20415;-61
2022/01/02 01:30:57;;;;;;;9.05;5.80;;;21.90;91.50;;;;;;4169588;28;20045;-61
2022/01/02 01:33:02;;;;;;;12.40;7.00;;;21.90;91.80;;;;;;4164574;28;20055;-61
2022/01/02 01:35:06;;;;;;;11.15;6.30;;;22.00;91.90;;;;;;4168494;28;20569;-61
2022/01/02 01:37:11;;;;;;;9.55;6.28;;;22.00;91.60;;;;;;4167850;28;20041;-61
2022/01/02 01:39:17;;;;;;;9.50;6.70;;;22.00;91.40;;;;;;4168221;28;20485;-62
2022/01/02 01:41:34;;;;;;;11.35;7.05;;;22.00;91.40;;;;;;4166663;28;20055;-61
2022/01/02 01:43:50;;;;;;;11.35;6.90;;;22.00;91.40;;;;;;4170178;28;20040;-61
2022/01/02 01:45:54;;;;;;;10.63;6.70;;;22.00;91.50;;;;;;4165486;28;20056;-62
2022/01/02 01:48:07;;;;;;;10.63;6.82;;;22.10;91.40;;;;;;4164920;28;20049;-62
2022/01/02 01:50:13;;;;;;;18.85;7.18;;;22.20;91.20;;;;;;4163983;28;20087;-62
2022/01/02 01:52:18;;;;;;;10.90;7.03;;;22.00;91.20;;;;;;4165293;28;20048;-62
2022/01/02 01:54:23;;;;;;;9.80;7.07;;;22.10;91.20;;;;;;4166014;28;20045;-62
2022/01/02 01:56:27;;;;;;;17.77;8.63;;;22.20;91.30;;;;;;4151817;28;20137;-62
2022/01/02 01:58:32;;;;;;;10.82;7.53;;;22.20;91.30;;;;;;4166449;28;20582;-61
2022/01/02 02:00:38;;;;;;;13.15;7.35;;;22.30;91.00;;;;;;4167707;28;20041;-61
2022/01/02 02:02:49;;;;;;;11.13;7.43;;;22.30;91.00;;;;;;4168235;28;20116;-62
2022/01/02 02:04:55;;;;;;;11.85;6.93;;;22.30;90.80;;;;;;4167129;28;20052;-62
2022/01/02 02:07:04;;;;;;;13.30;8.00;;;22.40;90.80;;;;;;4164081;28;20051;-63
2022/01/02 02:09:09;;;;;;;14.75;8.23;;;22.60;90.70;;;;;;4162989;28;20352;-62
2022/01/02 02:11:14;;;;;;;13.27;8.77;;;22.50;90.60;;;;;;4161040;28;20128;-62
2022/01/02 02:13:19;;;;;;;11.77;7.95;;;22.60;90.70;;;;;;4167541;28;20479;-62
2022/01/02 02:15:25;;;;;;;10.63;6.47;;;22.60;90.60;;;;;;4171691;28;20071;-62
2022/01/02 02:17:30;;;;;;;10.95;6.53;;;22.60;90.30;;;;;;4167107;28;20095;-62
2022/01/02 02:19:35;;;;;;;9.20;4.72;;;22.70;90.20;;;;;;4167345;28;20063;-61
2022/01/02 02:21:40;;;;;;;8.75;4.63;;;22.70;88.40;;;;;;4171859;28;20041;-61
2022/01/02 02:23:45;;;;;;;7.93;4.53;;;22.70;87.50;;;;;;4171061;28;20041;-62
2022/01/02 02:25:50;;;;;;;9.77;4.22;;;22.90;87.70;;;;;;4178401;28;20079;-62
2022/01/02 02:28:07;;;;;;;6.85;4.40;;;23.00;87.20;;;;;;4169358;28;20076;-62
2022/01/02 02:30:12;;;;;;;7.35;4.50;;;23.00;86.20;;;;;;4149142;28;20079;-63
2022/01/02 02:32:16;;;;;;;12.82;4.30;;;23.00;85.90;;;;;;4170423;28;20052;-63
2022/01/02 02:34:21;;;;;;;8.77;5.90;;;23.00;86.20;;;;;;4173100;28;20084;-63
2022/01/02 02:36:25;;;;;;;8.90;5.63;;;23.10;86.30;;;;;;4171483;28;20037;-62
2022/01/02 02:38:30;;;;;;;7.82;5.10;;;23.20;85.50;;;;;;4166646;28;20065;-63
2022/01/02 02:40:37;;;;;;;7.38;5.43;;;23.20;85.60;;;;;;4184929;28;20052;-64
2022/01/02 02:44:56;;;;;;;6.60;5.07;;;23.30;85.00;;;;;;4170666;28;20106;-64
2022/01/02 02:49:18;;;;;;;11.13;5.22;;;23.60;84.30;;;;;;4175249;28;20071;-64
2022/01/02 02:51:30;;;;;;;6.32;4.80;;;23.60;84.30;;;;;;4175571;28;20048;-64
2022/01/02 02:53:38;;;;;;;8.55;5.32;;;23.60;84.20;;;;;;4190827;28;20644;-64
2022/01/02 02:55:48;;;;;;;8.25;5.13;;;23.60;84.60;;;;;;4172150;28;20052;-63
2022/01/02 02:57:58;;;;;;;7.95;5.50;;;23.60;84.20;;;;;;4172309;28;20057;-64
2022/01/02 03:00:04;;;;;;;6.68;4.60;;;23.70;83.50;;;;;;4175382;28;20057;-64
2022/01/02 03:02:11;;;;;;;11.00;6.32;;;23.70;83.70;;;;;;4181135;28;20494;-64
2022/01/02 03:04:36;;;;;;;8.88;6.03;;;23.70;83.10;;;;;;4176229;28;20079;-64
2022/01/02 03:06:40;;;;;;;10.85;6.53;;;23.70;82.90;;;;;;4172265;28;20101;-64
2022/01/02 03:08:46;;;;;;;8.87;6.90;;;23.80;83.20;;;;;;4169407;28;20049;-64
2022/01/02 03:10:51;;;;;;;12.00;9.00;;;23.90;83.60;;;;;;4175103;28;20037;-64
2022/01/02 03:12:56;;;;;;;20.05;9.70;;;24.00;83.30;;;;;;4170514;28;20513;-64
2022/01/02 03:15:01;;;;;;;14.40;9.82;;;24.00;83.10;;;;;;4171973;28;20748;-64
2022/01/02 03:17:07;;;;;;;13.88;9.70;;;24.10;82.90;;;;;;4170094;28;20051;-64
2022/01/02 03:19:12;;;;;;;10.48;6.95;;;24.10;82.80;;;;;;4185033;28;20499;-64
2022/01/02 03:21:20;;;;;;;9.15;6.28;;;24.10;83.10;;;;;;4167169;28;20061;-65
2022/01/02 03:23:25;;;;;;;10.40;5.70;;;24.20;83.00;;;;;;4171647;28;20490;-64
2022/01/02 03:25:29;;;;;;;10.73;6.10;;;24.20;82.90;;;;;;4174385;28;20124;-64
2022/01/02 03:27:34;;;;;;;10.23;6.10;;;24.30;82.10;;;;;;4169389;28;20080;-64
2022/01/02 03:29:39;;;;;;;9.00;5.78;;;24.30;82.20;;;;;;4162497;28;20055;-65
2022/01/02 03:31:43;;;;;;;10.07;5.43;;;24.30;82.20;;;;;;4166919;28;20496;-65
2022/01/02 03:33:48;;;;;;;7.85;5.53;;;24.40;82.20;;;;;;4165166;28;21077;-65
2022/01/02 03:35:53;;;;;;;8.65;6.18;;;24.40;82.30;;;;;;4166307;28;20072;-65
2022/01/02 03:37:57;;;;;;;10.55;6.13;;;24.50;82.00;;;;;;4164792;28;20086;-63
2022/01/02 03:40:03;;;;;;;12.15;6.85;;;24.60;81.90;;;;;;4164291;28;20154;-63
2022/01/02 03:42:08;;;;;;;11.07;6.85;;;24.60;81.60;;;;;;4183145;28;20056;-65
2022/01/02 03:44:13;;;;;;;11.68;6.00;;;24.60;82.40;;;;;;4183380;28;20048;-64
2022/01/02 03:46:18;;;;;;;10.80;6.43;;;24.70;81.70;;;;;;4165983;28;20049;-65
2022/01/02 03:48:22;;;;;;;8.88;6.05;;;24.70;81.30;;;;;;4166323;28;20049;-65
2022/01/02 03:50:27;;;;;;;9.30;4.97;;;24.90;81.30;;;;;;4162820;28;20066;-65
2022/01/02 03:52:34;;;;;;;6.78;4.90;;;25.00;81.40;;;;;;4184345;28;20044;-65
2022/01/02 03:54:38;;;;;;;11.43;5.30;;;25.10;79.90;;;;;;4167920;28;20131;-65
2022/01/02 03:56:44;;;;;;;7.35;4.80;;;25.00;79.30;;;;;;4166507;28;20576;-65
2022/01/02 03:58:48;;;;;;;8.00;5.13;;;25.00;79.40;;;;;;4175289;28;20047;-65
2022/01/02 04:00:53;;;;;;;11.10;5.40;;;25.00;79.70;;;;;;4168698;28;20554;-64
2022/01/02 04:02:58;;;;;;;10.75;6.50;;;25.00;79.50;;;;;;4166540;28;20049;-65
2022/01/02 04:05:04;;;;;;;7.07;5.45;;;25.10;79.70;;;;;;4178569;28;20052;-65
2022/01/02 04:07:08;;;;;;;7.88;5.05;;;25.10;78.70;;;;;;4165588;28;20037;-65
2022/01/02 04:09:13;;;;;;;14.82;5.95;;;25.10;78.40;;;;;;4165226;28;20045;-65
2022/01/02 04:11:17;;;;;;;29.00;15.57;;;25.20;79.10;;;;;;4168693;28;20514;-65
2022/01/02 04:13:25;;;;;;;11.60;5.93;;;25.30;79.50;;;;;;4166504;28;20126;-64
2022/01/02 04:15:29;;;;;;;7.75;4.75;;;25.40;79.10;;;;;;4162701;28;20065;-65
2022/01/02 04:17:36;;;;;;;7.57;4.28;;;25.40;78.70;;;;;;4164440;28;20072;-65
2022/01/02 04:19:40;;;;;;;12.25;6.72;;;25.40;78.50;;;;;;4180320;28;20049;-64
2022/01/02 04:21:45;;;;;;;11.05;6.28;;;25.30;77.90;;;;;;4160919;28;20057;-64
2022/01/02 04:23:49;;;;;;;16.70;9.52;;;25.40;78.70;;;;;;4169289;28;20046;-64
2022/01/02 04:25:54;;;;;;;9.43;5.10;;;25.40;78.60;;;;;;4174815;28;20447;-64
2022/01/02 04:27:59;;;;;;;7.70;4.88;;;25.50;77.80;;;;;;4166512;28;20420;-65
2022/01/02 04:30:05;;;;;;;10.00;5.20;;;25.60;77.80;;;;;;4163589;28;20739;-65
2022/01/02 04:32:09;;;;;;;11.35;5.43;;;25.70;77.80;;;;;;4187747;28;20067;-63
2022/01/02 04:34:14;;;;;;;10.27;6.13;;;25.70;77.90;;;;;;4165653;28;20037;-64
2022/01/02 04:36:18;;;;;;;13.27;6.05;;;25.80;78.40;;;;;;4180387;28;20041;-64
2022/01/02 04:38:23;;;;;;;12.15;6.00;;;25.80;77.00;;;;;;4162570;28;20040;-64
2022/01/02 04:40:27;;;;;;;8.65;5.88;;;25.80;77.70;;;;;;4165912;28;20065;-64
2022/01/02 04:42:32;;;;;;;8.98;5.57;;;25.80;77.80;;;;;;4163299;28;20045;-64
2022/01/02 04:44:36;;;;;;;9.32;6.35;;;25.90;78.00;;;;;;4166380;28;20128;-64
2022/01/02 04:46:41;;;;;;;8.48;5.80;;;25.90;77.50;;;;;;4157311;28;20045;-65
2022/01/02 04:48:45;;;;;;;9.30;5.50;;;26.00;76.60;;;;;;4159892;28;20516;-65
2022/01/02 04:50:50;;;;;;;10.75;6.32;;;25.90;76.90;;;;;;4158753;28;20084;-63
2022/01/02 04:52:55;;;;;;;9.27;6.57;;;26.00;76.50;;;;;;4180133;28;20094;-65
2022/01/02 04:54:59;;;;;;;7.68;5.63;;;26.00;76.80;;;;;;4167956;28;20047;-65
2022/01/02 04:57:04;;;;;;;7.97;5.28;;;26.00;77.10;;;;;;4167383;28;20140;-64
2022/01/02 04:59:08;;;;;;;8.73;6.15;;;26.10;77.00;;;;;;4168816;28;20168;-64
2022/01/02 05:01:14;;;;;;;6.60;4.85;;;26.10;76.20;;;;;;4169719;28;20523;-65
2022/01/02 05:03:19;;;;;;;10.40;4.72;;;26.20;76.10;;;;;;4159190;28;20095;-65
2022/01/02 05:05:24;;;;;;;8.10;4.70;;;26.20;76.70;;;;;;4158449;28;20064;-65
2022/01/02 05:07:28;;;;;;;9.93;4.22;;;26.20;75.90;;;;;;4178181;28;20132;-65
2022/01/02 05:09:33;;;;;;;9.27;4.40;;;26.30;76.20;;;;;;4163491;28;20123;-65
2022/01/02 05:11:37;;;;;;;4.88;3.80;;;26.40;76.20;;;;;;4159737;28;20316;-64
2022/01/02 05:13:42;;;;;;;4.85;3.80;;;26.40;75.30;;;;;;4173193;28;20068;-65
2022/01/02 05:15:47;;;;;;;4.85;3.75;;;26.40;74.90;;;;;;4174076;28;20115;-65
2022/01/02 05:17:58;;;;;;;7.60;4.07;;;26.40;74.80;;;;;;4158599;28;20082;-65
2022/01/02 05:20:04;;;;;;;8.23;4.63;;;26.40;75.30;;;;;;4157939;28;20052;-65
2022/01/02 05:22:10;;;;;;;7.03;3.80;;;26.40;75.60;;;;;;4168774;28;20053;-65
2022/01/02 05:24:15;;;;;;;7.13;3.88;;;26.50;74.90;;;;;;4157881;28;20524;-66
2022/01/02 05:26:19;;;;;;;11.07;3.85;;;26.50;74.60;;;;;;4159639;28;20076;-64
2022/01/02 05:28:24;;;;;;;5.63;3.67;;;26.50;74.90;;;;;;4163531;28;20118;-65
2022/01/02 05:30:29;;;;;;;5.88;4.05;;;26.50;74.40;;;;;;4168302;28;20559;-64
2022/01/02 05:32:33;;;;;;;5.57;4.00;;;26.60;75.00;;;;;;4167157;28;20547;-64
2022/01/02 05:34:38;;;;;;;7.22;3.78;;;26.50;74.40;;;;;;4157929;28;20056;-64
2022/01/02 05:36:48;;;;;;;7.10;3.83;;;26.50;74.70;;;;;;4160517;28;20080;-64
2022/01/02 05:38:56;;;;;;;11.45;4.45;;;26.60;74.70;;;;;;4162014;28;20475;-64
2022/01/02 05:41:00;;;;;;;5.70;3.95;;;26.60;74.40;;;;;;4158939;28;20083;-65
2022/01/02 05:43:06;;;;;;;5.53;3.72;;;26.70;74.40;;;;;;4161859;28;20053;-64
2022/01/02 05:45:10;;;;;;;5.70;3.80;;;26.80;74.80;;;;;;4158840;28;20049;-64
2022/01/02 05:47:15;;;;;;;8.40;4.43;;;26.80;74.60;;;;;;4173771;28;20462;-64
2022/01/02 05:49:20;;;;;;;5.35;3.67;;;26.80;74.60;;;;;;4159661;28;20106;-64
2022/01/02 05:51:25;;;;;;;6.32;3.70;;;26.90;73.60;;;;;;4158143;28;20132;-64
2022/01/02 05:53:30;;;;;;;7.80;3.55;;;26.90;73.80;;;;;;4162033;28;20451;-64
2022/01/02 05:55:35;;;;;;;5.97;3.70;;;26.90;73.70;;;;;;4172831;28;20068;-64
2022/01/02 05:57:40;;;;;;;7.00;3.60;;;26.90;73.80;;;;;;4160322;28;20104;-64
2022/01/02 05:59:45;;;;;;;7.97;3.55;;;27.00;73.20;;;;;;4158435;28;20050;-64
2022/01/02 06:01:50;;;;;;;7.85;3.47;;;27.00;73.40;;;;;;4161232;28;20086;-64
2022/01/02 06:03:55;;;;;;;8.13;4.28;;;27.00;73.40;;;;;;4162758;28;20135;-63
2022/01/02 06:06:00;;;;;;;6.82;3.70;;;27.10;74.30;;;;;;4167081;28;20052;-65
2022/01/02 06:08:05;;;;;;;6.72;4.07;;;27.10;73.60;;;;;;4168665;28;20384;-65
2022/01/02 06:10:10;;;;;;;7.88;3.95;;;27.20;73.20;;;;;;4169008;28;20044;-63
2022/01/02 06:12:15;;;;;;;6.88;4.25;;;27.20;73.30;;;;;;4165715;28;20037;-64
2022/01/02 06:14:20;;;;;;;7.68;3.53;;;27.30;73.60;;;;;;4167151;28;20045;-65
2022/01/02 06:16:24;;;;;;;5.45;3.55;;;27.30;72.70;;;;;;4168735;28;20455;-64
2022/01/02 06:18:28;;;;;;;6.57;3.45;;;27.30;72.30;;;;;;4166583;28;20056;-65
2022/01/02 06:20:33;;;;;;;4.95;3.45;;;27.30;72.60;;;;;;4168636;28;20107;-65
2022/01/02 06:22:37;;;;;;;5.22;3.60;;;27.30;72.40;;;;;;4166220;28;20462;-63
2022/01/02 06:24:42;;;;;;;4.55;3.40;;;27.30;72.40;;;;;;4172924;28;20056;-63
2022/01/02 06:26:46;;;;;;;10.30;4.15;;;27.30;72.60;;;;;;4171502;28;20445;-63
2022/01/02 06:28:51;;;;;;;5.75;4.05;;;27.30;72.40;;;;;;4167555;28;20135;-63
2022/01/02 06:30:55;;;;;;;6.50;3.97;;;27.40;72.70;;;;;;4168646;28;20063;-64
2022/01/02 06:32:59;;;;;;;9.27;3.72;;;27.50;72.00;;;;;;4182138;28;20048;-64
2022/01/02 06:35:04;;;;;;;5.93;3.60;;;27.50;72.30;;;;;;4165159;28;20069;-63
2022/01/02 06:37:10;;;;;;;8.00;3.90;;;27.50;72.70;;;;;;4165743;28;20064;-64
2022/01/02 06:39:14;;;;;;;7.40;3.80;;;27.50;73.20;;;;;;4180522;28;20443;-65
2022/01/02 06:41:18;;;;;;;5.03;3.58;;;27.60;71.90;;;;;;4180909;28;20190;-64
2022/01/02 06:43:23;;;;;;;8.77;3.58;;;27.60;71.50;;;;;;4169799;28;20099;-64
2022/01/02 06:45:27;;;;;;;6.63;3.00;;;27.70;71.60;;;;;;4168772;28;20053;-64
2022/01/02 06:47:32;;;;;;;4.30;2.97;;;27.60;71.10;;;;;;4168981;28;20140;-64
2022/01/02 06:49:37;;;;;;;5.05;3.10;;;27.60;70.90;;;;;;4162829;28;20551;-65
2022/01/02 06:51:42;;;;;;;7.82;3.47;;;27.50;71.60;;;;;;4163703;28;20049;-64
2022/01/02 06:53:46;;;;;;;5.63;3.22;;;27.60;71.50;;;;;;4167969;28;20098;-64
2022/01/02 06:55:51;;;;;;;8.77;5.15;;;27.60;71.00;;;;;;4189513;28;20095;-63
2022/01/02 06:57:55;;;;;;;7.03;4.80;;;27.60;71.70;;;;;;4175645;28;20131;-64
2022/01/02 07:00:01;;;;;;;6.88;5.07;;;27.70;71.80;;;;;;4190792;28;20072;-65
2022/01/02 07:02:05;;;;;;;8.30;4.70;;;27.80;71.20;;;;;;4173613;28;20041;-64
2022/01/02 07:04:10;;;;;;;6.78;3.95;;;27.80;71.40;;;;;;4181584;28;20053;-63
2022/01/02 07:06:16;;;;;;;6.53;4.00;;;27.90;70.80;;;;;;4165117;28;20033;-64
2022/01/02 07:08:21;;;;;;;6.32;3.90;;;27.90;71.20;;;;;;4169858;28;20111;-63
2022/01/02 07:10:27;;;;;;;4.72;3.65;;;27.90;71.30;;;;;;4166286;28;20478;-63
2022/01/02 07:12:32;;;;;;;7.93;3.50;;;27.90;71.30;;;;;;4167741;28;20047;-62
2022/01/02 07:14:36;;;;;;;5.40;3.15;;;27.90;71.40;;;;;;4175646;28;20555;-63
2022/01/02 07:16:40;;;;;;;5.00;3.42;;;27.80;71.50;;;;;;4174628;28;20107;-62
2022/01/02 07:18:45;;;;;;;6.55;3.75;;;27.80;71.70;;;;;;4173909;28;20514;-62
2022/01/02 07:20:49;;;;;;;6.82;3.92;;;27.70;71.80;;;;;;4174965;28;20132;-62
2022/01/02 07:22:54;;;;;;;6.05;3.78;;;27.60;72.10;;;;;;4174152;28;20091;-63
2022/01/02 07:24:58;;;;;;;4.95;3.55;;;27.70;71.60;;;;;;4173220;28;20052;-63
2022/01/02 07:27:05;;;;;;;5.25;3.80;;;27.60;71.30;;;;;;4171407;28;20053;-63
2022/01/02 07:29:10;;;;;;;6.53;3.92;;;27.60;71.60;;;;;;4171849;28;20057;-63
2022/01/02 07:31:14;;;;;;;8.32;3.83;;;27.60;71.30;;;;;;4171512;28;20737;-63
2022/01/02 07:33:18;;;;;;;6.50;3.30;;;27.70;71.50;;;;;;4171188;28;20044;-64
2022/01/02 07:35:23;;;;;;;6.20;3.17;;;27.80;71.30;;;;;;4174812;28;20488;-63
2022/01/02 07:37:28;;;;;;;4.55;3.10;;;27.90;70.80;;;;;;4173668;28;20045;-64
2022/01/02 07:39:32;;;;;;;5.28;3.28;;;27.90;70.70;;;;;;4167416;28;20047;-65
2022/01/02 07:41:36;;;;;;;6.18;3.55;;;27.90;70.20;;;;;;4172529;28;20063;-65
2022/01/02 07:43:41;;;;;;;5.28;3.05;;;27.90;70.50;;;;;;4173648;28;20084;-65
2022/01/02 07:45:45;;;;;;;4.53;3.25;;;28.00;70.40;;;;;;4172795;28;20052;-64
2022/01/02 07:47:51;;;;;;;6.07;2.97;;;27.90;70.60;;;;;;4173363;28;20053;-64
2022/01/02 07:49:55;;;;;;;9.23;3.20;;;27.90;70.40;;;;;;4175348;28;20522;-66
2022/01/02 07:51:59;;;;;;;5.88;3.33;;;27.90;70.50;;;;;;4176906;28;20049;-65
2022/01/02 07:54:04;;;;;;;5.03;3.30;;;27.90;70.40;;;;;;4176778;28;20041;-65
2022/01/02 07:56:08;;;;;;;4.30;3.30;;;27.90;70.80;;;;;;4177055;28;20399;-65
2022/01/02 07:58:13;;;;;;;7.00;3.80;;;27.90;71.10;;;;;;4176839;28;20049;-64
2022/01/02 08:00:18;;;;;;;6.60;3.70;;;27.90;70.50;;;;;;4166935;28;20055;-66
2022/01/02 08:02:22;;;;;;;5.30;3.60;;;27.90;70.40;;;;;;4169114;28;20456;-67
2022/01/02 08:04:27;;;;;;;6.57;3.58;;;27.90;70.10;;;;;;4163280;28;20049;-66
2022/01/02 08:06:32;;;;;;;6.50;3.80;;;27.80;70.20;;;;;;4162483;28;20046;-65
2022/01/02 08:08:36;;;;;;;6.03;3.90;;;27.70;70.00;;;;;;4166210;28;20514;-64
2022/01/02 08:10:40;;;;;;;4.47;3.17;;;27.80;70.40;;;;;;4164787;28;20087;-65
2022/01/02 08:12:45;;;;;;;6.93;3.33;;;27.70;70.50;;;;;;4164473;28;20334;-65
2022/01/02 08:14:50;;;;;;;4.07;2.92;;;27.70;70.90;;;;;;4160779;28;20345;-65
2022/01/02 08:16:55;;;;;;;4.35;3.58;;;27.70;71.10;;;;;;4164001;28;20453;-65
2022/01/02 08:18:59;;;;;;;5.45;3.17;;;27.70;70.90;;;;;;4162371;28;20037;-65
2022/01/02 08:21:04;;;;;;;6.82;3.58;;;27.70;70.60;;;;;;4160440;28;20111;-65
2022/01/02 08:23:09;;;;;;;7.68;3.55;;;27.70;70.60;;;;;;4163695;28;20043;-65
2022/01/02 08:25:13;;;;;;;6.95;3.65;;;27.80;70.80;;;;;;4160769;28;20147;-65
2022/01/02 08:27:17;;;;;;;7.85;3.35;;;27.80;70.70;;;;;;4164161;28;20042;-65
2022/01/02 08:29:22;;;;;;;6.80;3.53;;;27.80;70.40;;;;;;4160722;28;20055;-65
2022/01/02 08:31:27;;;;;;;4.90;3.33;;;27.80;70.90;;;;;;4167462;28;20045;-66
2022/01/02 08:33:32;;;;;;;6.57;3.58;;;27.70;70.60;;;;;;4167884;28;20058;-66
2022/01/02 08:35:38;;;;;;;7.05;3.70;;;27.70;71.00;;;;;;4163216;28;20156;-65
2022/01/02 08:37:42;;;;;;;4.93;3.78;;;27.60;70.80;;;;;;4160601;28;20037;-66
2022/01/02 08:39:46;;;;;;;7.30;4.30;;;27.60;71.10;;;;;;4159088;28;20041;-65
2022/01/02 08:41:52;;;;;;;7.55;4.13;;;27.60;71.50;;;;;;4163369;28;20041;-65
2022/01/02 08:43:57;;;;;;;6.55;3.92;;;27.70;71.30;;;;;;4160773;28;20038;-65
2022/01/02 08:46:01;;;;;;;7.05;4.00;;;27.70;71.10;;;;;;4162272;28;20133;-65
2022/01/02 08:48:06;;;;;;;7.47;3.95;;;27.70;71.30;;;;;;4161787;28;20049;-65
2022/01/02 08:50:10;;;;;;;5.22;3.65;;;27.70;71.40;;;;;;4159907;28;20060;-65
2022/01/02 08:52:15;;;;;;;4.75;4.03;;;27.60;71.30;;;;;;4163373;28;20111;-66
2022/01/02 08:54:19;;;;;;;7.07;3.63;;;27.60;71.40;;;;;;4163219;28;20091;-65
2022/01/02 08:56:23;;;;;;;5.72;3.95;;;27.60;71.10;;;;;;4164435;28;20157;-66
2022/01/02 08:58:27;;;;;;;6.10;3.58;;;27.60;71.50;;;;;;4169931;28;20046;-65
2022/01/02 09:00:32;;;;;;;4.80;3.47;;;27.60;71.40;;;;;;4168738;28;20045;-65
2022/01/02 09:02:36;;;;;;;10.65;4.13;;;27.60;71.90;;;;;;4162287;28;20041;-65
2022/01/02 09:04:41;;;;;;;12.10;5.05;;;27.60;72.10;;;;;;4177984;28;20080;-65
2022/01/02 09:06:45;;;;;;;10.38;5.13;;;27.60;72.30;;;;;;4166025;28;20541;-65
2022/01/02 09:08:49;;;;;;;9.55;4.43;;;27.60;71.90;;;;;;4166044;28;20053;-66
2022/01/02 09:10:53;;;;;;;5.95;3.88;;;27.60;72.00;;;;;;4161682;28;20558;-66
2022/01/02 09:12:58;;;;;;;8.77;3.60;;;27.60;71.80;;;;;;4161443;28;20455;-66
2022/01/02 09:15:03;;;;;;;6.95;3.55;;;27.70;72.00;;;;;;4160549;28;20419;-66
2022/01/02 09:17:07;;;;;;;6.68;4.45;;;27.70;72.00;;;;;;4162918;28;20056;-66
2022/01/02 09:19:12;;;;;;;5.80;3.88;;;27.80;72.00;;;;;;4160846;28;20045;-66
2022/01/02 09:21:17;;;;;;;9.32;4.93;;;27.80;71.60;;;;;;4161868;28;20583;-66
2022/01/02 09:23:21;;;;;;;6.78;4.60;;;27.80;71.50;;;;;;4160995;28;20061;-66
2022/01/02 09:25:25;;;;;;;11.20;5.30;;;27.80;71.30;;;;;;4161287;28;20539;-66
2022/01/02 09:27:30;;;;;;;11.57;4.60;;;27.70;71.40;;;;;;4159254;28;20053;-65
2022/01/02 09:29:37;;;;;;;8.48;4.60;;;27.80;71.20;;;;;;4177411;28;20052;-65
2022/01/02 09:31:42;;;;;;;8.30;4.70;;;27.70;71.50;;;;;;4161937;28;20054;-65
2022/01/02 09:33:46;;;;;;;6.15;3.85;;;27.70;71.80;;;;;;4161043;28;20041;-65
2022/01/02 09:35:51;;;;;;;5.22;3.80;;;27.60;72.80;;;;;;4167578;28;20045;-66
2022/01/02 09:37:55;;;;;;;8.57;4.10;;;27.60;72.10;;;;;;4168807;28;20041;-64
2022/01/02 09:40:01;;;;;;;8.55;4.30;;;27.60;72.70;;;;;;4167899;28;20037;-67
2022/01/02 09:42:05;;;;;;;12.07;4.28;;;27.60;72.20;;;;;;4166976;28;20053;-65
2022/01/02 09:44:10;;;;;;;9.70;4.47;;;27.60;72.20;;;;;;4167742;28;20404;-65
2022/01/02 09:46:22;;;;;;;5.57;4.32;;;27.60;72.20;;;;;;4157283;28;20132;-65
2022/01/02 09:48:27;;;;;;;8.45;4.53;;;27.60;72.20;;;;;;4158495;28;20535;-65
2022/01/02 09:50:32;;;;;;;7.35;4.18;;;27.50;72.30;;;;;;4156976;28;20675;-65
2022/01/02 09:52:37;;;;;;;7.82;4.10;;;27.50;72.20;;;;;;4158960;28;20543;-65
2022/01/02 09:54:41;;;;;;;7.07;4.38;;;27.50;72.20;;;;;;4159419;28;20038;-65
2022/01/02 09:56:46;;;;;;;7.32;4.20;;;27.50;72.00;;;;;;4162537;28;20044;-65
2022/01/02 09:58:51;;;;;;;7.05;4.50;;;27.50;72.20;;;;;;4161133;28;20045;-65
2022/01/02 10:00:55;;;;;;;5.97;4.35;;;27.50;72.30;;;;;;4159980;28;20033;-64
2022/01/02 10:03:09;;;;;;;6.68;4.10;;;27.50;72.40;;;;;;4166011;28;20049;-65
2022/01/02 10:05:16;;;;;;;11.13;4.30;;;27.40;72.90;;;;;;4167019;28;20045;-65
2022/01/02 10:07:29;;;;;;;5.63;4.30;;;27.40;72.90;;;;;;4168564;28;20425;-64
2022/01/02 10:09:38;;;;;;;8.98;4.93;;;27.40;73.00;;;;;;4171988;28;20065;-64
2022/01/02 10:11:42;;;;;;;9.63;5.97;;;27.40;73.00;;;;;;4171946;28;20071;-64
2022/01/02 10:13:51;;;;;;;11.38;5.47;;;27.40;72.90;;;;;;4171155;28;20439;-64
2022/01/02 10:15:56;;;;;;;13.73;6.25;;;27.30;72.90;;;;;;4168710;28;20103;-64
2022/01/02 10:18:10;;;;;;;10.93;5.97;;;27.40;73.20;;;;;;4171149;28;20048;-65
2022/01/02 10:20:17;;;;;;;10.27;6.35;;;27.40;73.40;;;;;;4168847;28;20072;-65
2022/01/02 10:22:21;;;;;;;11.05;6.47;;;27.30;73.40;;;;;;4169753;28;20049;-64
2022/01/02 10:24:33;;;;;;;13.50;7.38;;;27.40;73.50;;;;;;4170907;28;20083;-64
2022/01/02 10:26:39;;;;;;;10.85;6.85;;;27.30;73.50;;;;;;4160388;28;20048;-65
2022/01/02 10:28:43;;;;;;;11.38;6.82;;;27.30;73.80;;;;;;4169752;28;20111;-65
2022/01/02 10:30:51;;;;;;;12.10;6.95;;;27.30;74.00;;;;;;4168424;28;20120;-65
2022/01/02 10:32:56;;;;;;;14.52;7.07;;;27.20;74.10;;;;;;4182536;28;20457;-66
2022/01/02 10:35:16;;;;;;;12.88;6.95;;;27.20;74.30;;;;;;4169466;28;20037;-66
2022/01/02 10:37:24;;;;;;;10.70;6.82;;;27.20;74.40;;;;;;4169588;28;20403;-66
2022/01/02 10:39:30;;;;;;;12.90;7.65;;;27.20;74.60;;;;;;4169124;28;20569;-64
2022/01/02 10:41:45;;;;;;;16.85;7.40;;;27.20;74.80;;;;;;4166157;28;20053;-66
2022/01/02 10:43:52;;;;;;;16.05;7.95;;;27.20;74.90;;;;;;4169177;28;20849;-66
2022/01/02 10:46:03;;;;;;;15.80;8.60;;;27.10;74.90;;;;;;4168003;28;20040;-65
2022/01/02 10:48:13;;;;;;;18.30;9.05;;;27.10;75.00;;;;;;4163842;28;20460;-66
2022/01/02 10:50:18;;;;;;;18.88;9.35;;;27.10;75.30;;;;;;4166346;28;20077;-66
2022/01/02 10:52:36;;;;;;;17.70;9.80;;;27.10;75.40;;;;;;4167984;28;20056;-65
2022/01/02 10:54:41;;;;;;;19.23;9.88;;;27.00;75.70;;;;;;4169121;28;20585;-66
2022/01/02 10:56:47;;;;;;;21.98;9.95;;;27.00;75.80;;;;;;4167544;28;20045;-66